Pella, Idaho
Current Conditions -  °F | °C
As of 2:53 PM on Saturday 25 Oct 2014 (Local Time) from KBYI Reporting Station
Clear Clear  
Wind Chill: 73°   Ceiling: Unl
Heat Index: 73°   Visibility: 10mi
Dew Point: 31°   Wind: 18mph
Humidity: 21%   Direction: 190°S
Pressure: 29.87"   Gusts: 28mph
Location:  42.5011°N, 113.814°W
Report Text: KBYI 252053Z AUTO 19016G24KT 10SM CLR 23/M01 A2987 RMK AO2 PK WND 20026/1957 SLP084 T02281006 56022
Loading
Personal Weather Stations






























Interactive Weather Map
Tropical Storm Tracking
New forecast layout! Learn more

10-Day Weather Forecast

Advertisements
Track Severe Weather on mobile